sensor_id;sensor_type;location;lat;lon;timestamp;P1;durP1;ratioP1;P2;durP2;ratioP2
73954;SDS011;62306;52.516;13.290;2023-03-04T00:01:15;68.75;;;24.85;;
73954;SDS011;62306;52.516;13.290;2023-03-04T00:03:41;65.47;;;24.17;;
73954;SDS011;62306;52.516;13.290;2023-03-04T00:06:08;61.97;;;25.08;;
73954;SDS011;62306;52.516;13.290;2023-03-04T00:08:35;68.32;;;25.95;;
73954;SDS011;62306;52.516;13.290;2023-03-04T00:11:04;57.67;;;23.95;;
73954;SDS011;62306;52.516;13.290;2023-03-04T00:13:31;62.25;;;24.65;;
73954;SDS011;62306;52.516;13.290;2023-03-04T00:15:57;60.35;;;24.42;;
73954;SDS011;62306;52.516;13.290;2023-03-04T00:18:24;68.43;;;24.83;;
73954;SDS011;62306;52.516;13.290;2023-03-04T00:20:51;61.78;;;24.50;;
73954;SDS011;62306;52.516;13.290;2023-03-04T00:23:18;56.75;;;22.52;;
73954;SDS011;62306;52.516;13.290;2023-03-04T00:25:45;58.65;;;23.80;;
73954;SDS011;62306;52.516;13.290;2023-03-04T00:28:13;60.58;;;23.02;;
73954;SDS011;62306;52.516;13.290;2023-03-04T00:30:40;56.30;;;21.90;;
73954;SDS011;62306;52.516;13.290;2023-03-04T00:33:07;59.50;;;22.80;;
73954;SDS011;62306;52.516;13.290;2023-03-04T00:35:34;60.70;;;21.05;;
73954;SDS011;62306;52.516;13.290;2023-03-04T00:38:00;59.20;;;23.52;;
73954;SDS011;62306;52.516;13.290;2023-03-04T00:40:27;54.90;;;20.67;;
73954;SDS011;62306;52.516;13.290;2023-03-04T00:42:54;65.07;;;21.85;;
73954;SDS011;62306;52.516;13.290;2023-03-04T00:45:22;53.47;;;21.00;;
73954;SDS011;62306;52.516;13.290;2023-03-04T00:47:49;50.28;;;19.08;;
73954;SDS011;62306;52.516;13.290;2023-03-04T00:50:16;53.58;;;20.77;;
73954;SDS011;62306;52.516;13.290;2023-03-04T00:52:44;56.70;;;21.63;;
73954;SDS011;62306;52.516;13.290;2023-03-04T00:55:11;54.95;;;21.17;;
73954;SDS011;62306;52.516;13.290;2023-03-04T00:57:37;49.88;;;20.38;;
73954;SDS011;62306;52.516;13.290;2023-03-04T01:00:05;56.13;;;20.73;;
73954;SDS011;62306;52.516;13.290;2023-03-04T01:02:34;47.60;;;18.92;;
73954;SDS011;62306;52.516;13.290;2023-03-04T01:05:00;45.83;;;18.77;;
73954;SDS011;62306;52.516;13.290;2023-03-04T01:07:27;58.58;;;19.25;;
73954;SDS011;62306;52.516;13.290;2023-03-04T01:09:54;46.13;;;17.23;;
73954;SDS011;62306;52.516;13.290;2023-03-04T01:12:21;50.88;;;17.15;;
73954;SDS011;62306;52.516;13.290;2023-03-04T01:14:48;53.58;;;16.55;;
73954;SDS011;62306;52.516;13.290;2023-03-04T01:17:15;43.72;;;16.48;;
73954;SDS011;62306;52.516;13.290;2023-03-04T01:19:43;42.47;;;15.13;;
73954;SDS011;62306;52.516;13.290;2023-03-04T01:22:10;47.55;;;16.42;;
73954;SDS011;62306;52.516;13.290;2023-03-04T01:24:39;51.42;;;16.20;;
73954;SDS011;62306;52.516;13.290;2023-03-04T01:27:06;39.25;;;13.88;;
73954;SDS011;62306;52.516;13.290;2023-03-04T01:29:32;46.25;;;14.18;;
73954;SDS011;62306;52.516;13.290;2023-03-04T01:31:59;40.00;;;12.70;;
73954;SDS011;62306;52.516;13.290;2023-03-04T01:34:26;38.42;;;13.35;;
73954;SDS011;62306;52.516;13.290;2023-03-04T01:36:55;35.88;;;12.60;;
73954;SDS011;62306;52.516;13.290;2023-03-04T01:39:21;45.80;;;12.95;;
73954;SDS011;62306;52.516;13.290;2023-03-04T01:41:48;47.25;;;12.82;;
73954;SDS011;62306;52.516;13.290;2023-03-04T01:44:15;39.03;;;11.88;;
73954;SDS011;62306;52.516;13.290;2023-03-04T01:46:43;41.72;;;11.23;;
73954;SDS011;62306;52.516;13.290;2023-03-04T01:49:15;38.58;;;13.05;;
73954;SDS011;62306;52.516;13.290;2023-03-04T01:51:42;36.22;;;11.63;;
73954;SDS011;62306;52.516;13.290;2023-03-04T01:54:12;26.88;;;10.45;;
73954;SDS011;62306;52.516;13.290;2023-03-04T01:56:39;42.33;;;10.32;;
73954;SDS011;62306;52.516;13.290;2023-03-04T01:59:09;41.13;;;11.63;;
73954;SDS011;62306;52.516;13.290;2023-03-04T02:01:38;28.42;;;10.30;;
73954;SDS011;62306;52.516;13.290;2023-03-04T02:04:07;40.55;;;11.30;;
73954;SDS011;62306;52.516;13.290;2023-03-04T02:06:35;35.78;;;11.10;;
73954;SDS011;62306;52.516;13.290;2023-03-04T02:09:03;34.25;;;10.05;;
73954;SDS011;62306;52.516;13.290;2023-03-04T02:11:32;34.78;;;10.40;;
73954;SDS011;62306;52.516;13.290;2023-03-04T02:13:59;26.85;;;9.43;;
73954;SDS011;62306;52.516;13.290;2023-03-04T02:16:26;30.60;;;10.23;;
73954;SDS011;62306;52.516;13.290;2023-03-04T02:18:53;34.22;;;9.45;;
73954;SDS011;62306;52.516;13.290;2023-03-04T02:21:21;29.25;;;9.75;;
73954;SDS011;62306;52.516;13.290;2023-03-04T02:23:52;31.88;;;9.43;;
73954;SDS011;62306;52.516;13.290;2023-03-04T02:26:27;25.85;;;8.60;;
73954;SDS011;62306;52.516;13.290;2023-03-04T02:28:55;31.48;;;8.48;;
73954;SDS011;62306;52.516;13.290;2023-03-04T02:31:25;29.92;;;8.20;;
73954;SDS011;62306;52.516;13.290;2023-03-04T02:33:56;25.15;;;8.93;;
73954;SDS011;62306;52.516;13.290;2023-03-04T02:36:25;29.23;;;8.40;;
73954;SDS011;62306;52.516;13.290;2023-03-04T02:38:52;28.80;;;8.45;;
73954;SDS011;62306;52.516;13.290;2023-03-04T02:41:21;32.53;;;8.88;;
73954;SDS011;62306;52.516;13.290;2023-03-04T02:43:52;41.58;;;9.50;;
73954;SDS011;62306;52.516;13.290;2023-03-04T02:46:20;26.13;;;8.27;;
73954;SDS011;62306;52.516;13.290;2023-03-04T02:48:47;31.40;;;8.65;;
73954;SDS011;62306;52.516;13.290;2023-03-04T02:51:15;34.22;;;8.73;;
73954;SDS011;62306;52.516;13.290;2023-03-04T02:53:42;32.90;;;9.10;;
73954;SDS011;62306;52.516;13.290;2023-03-04T02:56:09;36.03;;;8.85;;
73954;SDS011;62306;52.516;13.290;2023-03-04T02:58:36;27.08;;;7.65;;
73954;SDS011;62306;52.516;13.290;2023-03-04T03:01:06;24.35;;;7.70;;
73954;SDS011;62306;52.516;13.290;2023-03-04T03:03:33;27.15;;;8.50;;
73954;SDS011;62306;52.516;13.290;2023-03-04T03:06:00;22.98;;;7.97;;
73954;SDS011;62306;52.516;13.290;2023-03-04T03:08:26;28.48;;;8.23;;
73954;SDS011;62306;52.516;13.290;2023-03-04T03:10:53;36.78;;;8.07;;
73954;SDS011;62306;52.516;13.290;2023-03-04T03:13:20;32.25;;;8.82;;
73954;SDS011;62306;52.516;13.290;2023-03-04T03:15:47;23.52;;;7.28;;
73954;SDS011;62306;52.516;13.290;2023-03-04T03:18:15;32.17;;;8.07;;
73954;SDS011;62306;52.516;13.290;2023-03-04T03:20:42;29.38;;;8.50;;
73954;SDS011;62306;52.516;13.290;2023-03-04T03:23:09;37.38;;;7.32;;
73954;SDS011;62306;52.516;13.290;2023-03-04T03:25:36;27.10;;;7.97;;
73954;SDS011;62306;52.516;13.290;2023-03-04T03:28:03;24.88;;;7.28;;
73954;SDS011;62306;52.516;13.290;2023-03-04T03:30:30;28.25;;;7.93;;
73954;SDS011;62306;52.516;13.290;2023-03-04T03:32:57;36.70;;;8.25;;
73954;SDS011;62306;52.516;13.290;2023-03-04T03:35:25;28.27;;;7.45;;
73954;SDS011;62306;52.516;13.290;2023-03-04T03:37:53;27.42;;;7.82;;
73954;SDS011;62306;52.516;13.290;2023-03-04T03:40:19;23.23;;;6.53;;
73954;SDS011;62306;52.516;13.290;2023-03-04T03:42:46;26.33;;;7.25;;
73954;SDS011;62306;52.516;13.290;2023-03-04T03:45:13;21.70;;;6.88;;
73954;SDS011;62306;52.516;13.290;2023-03-04T03:47:40;29.85;;;6.78;;
73954;SDS011;62306;52.516;13.290;2023-03-04T03:50:08;23.17;;;6.55;;
73954;SDS011;62306;52.516;13.290;2023-03-04T03:52:36;22.63;;;6.47;;
73954;SDS011;62306;52.516;13.290;2023-03-04T03:55:04;20.85;;;6.95;;
73954;SDS011;62306;52.516;13.290;2023-03-04T03:57:31;27.20;;;7.05;;
73954;SDS011;62306;52.516;13.290;2023-03-04T03:59:58;23.90;;;6.15;;
73954;SDS011;62306;52.516;13.290;2023-03-04T04:02:26;32.10;;;7.60;;
73954;SDS011;62306;52.516;13.290;2023-03-04T04:04:53;24.25;;;6.15;;
73954;SDS011;62306;52.516;13.290;2023-03-04T04:07:20;25.58;;;5.65;;
73954;SDS011;62306;52.516;13.290;2023-03-04T04:09:48;24.02;;;6.13;;
73954;SDS011;62306;52.516;13.290;2023-03-04T04:12:15;24.95;;;6.40;;
73954;SDS011;62306;52.516;13.290;2023-03-04T04:14:44;23.70;;;6.28;;
73954;SDS011;62306;52.516;13.290;2023-03-04T04:17:11;27.17;;;6.18;;
73954;SDS011;62306;52.516;13.290;2023-03-04T04:19:39;32.30;;;6.25;;
73954;SDS011;62306;52.516;13.290;2023-03-04T04:22:06;29.25;;;5.90;;
73954;SDS011;62306;52.516;13.290;2023-03-04T04:24:35;23.60;;;7.05;;
73954;SDS011;62306;52.516;13.290;2023-03-04T04:27:03;20.02;;;6.03;;
73954;SDS011;62306;52.516;13.290;2023-03-04T04:29:30;19.52;;;5.68;;
73954;SDS011;62306;52.516;13.290;2023-03-04T04:31:57;31.25;;;7.35;;
73954;SDS011;62306;52.516;13.290;2023-03-04T04:34:24;27.77;;;7.10;;
73954;SDS011;62306;52.516;13.290;2023-03-04T04:36:51;28.08;;;6.65;;
73954;SDS011;62306;52.516;13.290;2023-03-04T04:39:18;22.35;;;6.10;;
73954;SDS011;62306;52.516;13.290;2023-03-04T04:41:45;28.92;;;7.00;;
73954;SDS011;62306;52.516;13.290;2023-03-04T04:44:13;29.58;;;6.30;;
73954;SDS011;62306;52.516;13.290;2023-03-04T04:46:41;31.67;;;6.65;;
73954;SDS011;62306;52.516;13.290;2023-03-04T04:49:08;27.85;;;6.97;;
73954;SDS011;62306;52.516;13.290;2023-03-04T04:51:35;26.58;;;6.35;;
73954;SDS011;62306;52.516;13.290;2023-03-04T04:54:03;29.77;;;7.93;;
73954;SDS011;62306;52.516;13.290;2023-03-04T04:56:30;29.02;;;6.20;;
73954;SDS011;62306;52.516;13.290;2023-03-04T04:58:58;24.35;;;6.82;;
73954;SDS011;62306;52.516;13.290;2023-03-04T05:01:30;22.70;;;4.63;;
73954;SDS011;62306;52.516;13.290;2023-03-04T05:03:57;27.90;;;5.85;;
73954;SDS011;62306;52.516;13.290;2023-03-04T05:06:24;23.50;;;5.80;;
73954;SDS011;62306;52.516;13.290;2023-03-04T05:08:51;18.33;;;4.72;;
73954;SDS011;62306;52.516;13.290;2023-03-04T05:11:18;21.98;;;4.70;;
73954;SDS011;62306;52.516;13.290;2023-03-04T05:13:46;26.00;;;5.75;;
73954;SDS011;62306;52.516;13.290;2023-03-04T05:16:13;24.25;;;5.18;;
73954;SDS011;62306;52.516;13.290;2023-03-04T05:18:42;23.67;;;5.53;;
73954;SDS011;62306;52.516;13.290;2023-03-04T05:21:09;22.25;;;5.22;;
73954;SDS011;62306;52.516;13.290;2023-03-04T05:23:37;20.73;;;4.72;;
73954;SDS011;62306;52.516;13.290;2023-03-04T05:26:06;18.92;;;4.45;;
73954;SDS011;62306;52.516;13.290;2023-03-04T05:28:34;23.17;;;4.45;;
73954;SDS011;62306;52.516;13.290;2023-03-04T05:31:01;23.33;;;5.30;;
73954;SDS011;62306;52.516;13.290;2023-03-04T05:33:28;18.02;;;4.05;;
73954;SDS011;62306;52.516;13.290;2023-03-04T05:35:57;23.83;;;5.15;;
73954;SDS011;62306;52.516;13.290;2023-03-04T05:38:24;19.80;;;4.30;;
73954;SDS011;62306;52.516;13.290;2023-03-04T05:40:54;20.33;;;4.28;;
73954;SDS011;62306;52.516;13.290;2023-03-04T05:43:23;18.95;;;4.43;;
73954;SDS011;62306;52.516;13.290;2023-03-04T05:45:50;13.65;;;4.18;;
73954;SDS011;62306;52.516;13.290;2023-03-04T05:48:17;29.10;;;5.43;;
73954;SDS011;62306;52.516;13.290;2023-03-04T05:50:43;20.90;;;4.95;;
73954;SDS011;62306;52.516;13.290;2023-03-04T05:53:12;21.83;;;4.22;;
73954;SDS011;62306;52.516;13.290;2023-03-04T05:55:39;17.67;;;4.95;;
73954;SDS011;62306;52.516;13.290;2023-03-04T05:58:06;13.75;;;3.42;;
73954;SDS011;62306;52.516;13.290;2023-03-04T06:00:33;11.13;;;3.70;;
73954;SDS011;62306;52.516;13.290;2023-03-04T06:02:59;12.57;;;4.03;;
73954;SDS011;62306;52.516;13.290;2023-03-04T06:05:26;15.60;;;3.70;;
73954;SDS011;62306;52.516;13.290;2023-03-04T06:07:53;27.70;;;4.38;;
73954;SDS011;62306;52.516;13.290;2023-03-04T06:10:21;12.55;;;3.50;;
73954;SDS011;62306;52.516;13.290;2023-03-04T06:12:48;18.10;;;4.55;;
73954;SDS011;62306;52.516;13.290;2023-03-04T06:15:15;16.77;;;3.55;;
73954;SDS011;62306;52.516;13.290;2023-03-04T06:17:42;16.80;;;3.90;;
73954;SDS011;62306;52.516;13.290;2023-03-04T06:20:10;18.13;;;4.25;;
73954;SDS011;62306;52.516;13.290;2023-03-04T06:22:37;15.18;;;3.75;;
73954;SDS011;62306;52.516;13.290;2023-03-04T06:25:05;13.95;;;4.15;;
73954;SDS011;62306;52.516;13.290;2023-03-04T06:27:33;11.07;;;3.28;;
73954;SDS011;62306;52.516;13.290;2023-03-04T06:30:01;16.88;;;3.85;;
73954;SDS011;62306;52.516;13.290;2023-03-04T06:32:28;19.63;;;3.97;;
73954;SDS011;62306;52.516;13.290;2023-03-04T06:34:54;16.13;;;3.63;;
73954;SDS011;62306;52.516;13.290;2023-03-04T06:37:21;19.25;;;3.95;;
73954;SDS011;62306;52.516;13.290;2023-03-04T06:39:48;15.85;;;4.38;;
73954;SDS011;62306;52.516;13.290;2023-03-04T06:42:15;10.82;;;3.22;;
73954;SDS011;62306;52.516;13.290;2023-03-04T06:44:44;13.93;;;4.15;;
73954;SDS011;62306;52.516;13.290;2023-03-04T06:47:13;10.27;;;3.92;;
73954;SDS011;62306;52.516;13.290;2023-03-04T06:49:40;24.17;;;3.88;;
73954;SDS011;62306;52.516;13.290;2023-03-04T06:52:07;16.13;;;3.45;;
73954;SDS011;62306;52.516;13.290;2023-03-04T06:54:35;14.70;;;3.70;;
73954;SDS011;62306;52.516;13.290;2023-03-04T06:57:02;15.82;;;3.50;;
73954;SDS011;62306;52.516;13.290;2023-03-04T06:59:29;18.10;;;3.65;;
73954;SDS011;62306;52.516;13.290;2023-03-04T07:01:57;18.00;;;4.00;;
73954;SDS011;62306;52.516;13.290;2023-03-04T07:04:24;17.75;;;4.32;;
73954;SDS011;62306;52.516;13.290;2023-03-04T07:06:51;13.00;;;3.72;;
73954;SDS011;62306;52.516;13.290;2023-03-04T07:09:18;14.52;;;4.47;;
73954;SDS011;62306;52.516;13.290;2023-03-04T07:11:45;11.13;;;3.90;;
73954;SDS011;62306;52.516;13.290;2023-03-04T07:14:11;14.52;;;3.55;;
73954;SDS011;62306;52.516;13.290;2023-03-04T07:16:39;15.38;;;4.13;;
73954;SDS011;62306;52.516;13.290;2023-03-04T07:19:07;8.20;;;3.45;;
73954;SDS011;62306;52.516;13.290;2023-03-04T07:21:34;7.80;;;3.25;;
73954;SDS011;62306;52.516;13.290;2023-03-04T07:24:01;12.00;;;3.65;;
73954;SDS011;62306;52.516;13.290;2023-03-04T07:26:28;16.63;;;3.55;;
73954;SDS011;62306;52.516;13.290;2023-03-04T07:28:55;18.52;;;3.60;;
73954;SDS011;62306;52.516;13.290;2023-03-04T07:31:24;14.75;;;3.97;;
73954;SDS011;62306;52.516;13.290;2023-03-04T07:33:54;9.73;;;3.55;;
73954;SDS011;62306;52.516;13.290;2023-03-04T07:36:24;13.43;;;3.58;;
73954;SDS011;62306;52.516;13.290;2023-03-04T07:38:51;9.27;;;3.70;;
73954;SDS011;62306;52.516;13.290;2023-03-04T07:41:20;11.52;;;3.45;;
73954;SDS011;62306;52.516;13.290;2023-03-04T07:43:48;13.68;;;3.60;;
73954;SDS011;62306;52.516;13.290;2023-03-04T07:46:15;11.27;;;3.38;;
73954;SDS011;62306;52.516;13.290;2023-03-04T07:48:42;11.05;;;3.50;;
73954;SDS011;62306;52.516;13.290;2023-03-04T07:51:10;16.05;;;3.20;;
73954;SDS011;62306;52.516;13.290;2023-03-04T07:53:44;10.60;;;3.58;;
73954;SDS011;62306;52.516;13.290;2023-03-04T07:56:13;12.93;;;2.88;;
73954;SDS011;62306;52.516;13.290;2023-03-04T07:58:41;10.00;;;3.08;;
73954;SDS011;62306;52.516;13.290;2023-03-04T08:01:09;7.50;;;3.03;;
73954;SDS011;62306;52.516;13.290;2023-03-04T08:03:36;4.47;;;2.40;;
73954;SDS011;62306;52.516;13.290;2023-03-04T08:06:04;11.45;;;3.70;;
73954;SDS011;62306;52.516;13.290;2023-03-04T08:08:32;7.10;;;2.85;;
73954;SDS011;62306;52.516;13.290;2023-03-04T08:11:02;9.25;;;2.75;;
73954;SDS011;62306;52.516;13.290;2023-03-04T08:13:29;12.98;;;3.17;;
73954;SDS011;62306;52.516;13.290;2023-03-04T08:15:56;10.68;;;3.42;;
73954;SDS011;62306;52.516;13.290;2023-03-04T08:18:24;5.63;;;2.53;;
73954;SDS011;62306;52.516;13.290;2023-03-04T08:20:51;14.48;;;3.45;;
73954;SDS011;62306;52.516;13.290;2023-03-04T08:23:18;12.80;;;3.15;;
73954;SDS011;62306;52.516;13.290;2023-03-04T08:25:46;16.42;;;3.60;;
73954;SDS011;62306;52.516;13.290;2023-03-04T08:28:15;9.55;;;2.70;;
73954;SDS011;62306;52.516;13.290;2023-03-04T08:30:50;13.60;;;3.72;;
73954;SDS011;62306;52.516;13.290;2023-03-04T08:33:18;12.07;;;2.65;;
73954;SDS011;62306;52.516;13.290;2023-03-04T08:35:45;8.32;;;2.90;;
73954;SDS011;62306;52.516;13.290;2023-03-04T08:38:12;19.52;;;3.28;;
73954;SDS011;62306;52.516;13.290;2023-03-04T08:40:38;10.63;;;2.80;;
73954;SDS011;62306;52.516;13.290;2023-03-04T08:43:05;19.67;;;2.70;;
73954;SDS011;62306;52.516;13.290;2023-03-04T08:45:34;7.90;;;2.47;;
73954;SDS011;62306;52.516;13.290;2023-03-04T08:48:00;6.95;;;1.85;;
73954;SDS011;62306;52.516;13.290;2023-03-04T08:50:27;9.30;;;2.30;;
73954;SDS011;62306;52.516;13.290;2023-03-04T08:52:54;11.23;;;2.85;;
73954;SDS011;62306;52.516;13.290;2023-03-04T08:55:21;8.68;;;2.58;;
73954;SDS011;62306;52.516;13.290;2023-03-04T08:57:48;15.40;;;2.50;;
73954;SDS011;62306;52.516;13.290;2023-03-04T09:00:15;8.20;;;2.65;;
73954;SDS011;62306;52.516;13.290;2023-03-04T09:02:44;11.02;;;2.33;;
73954;SDS011;62306;52.516;13.290;2023-03-04T09:05:11;5.70;;;2.13;;
73954;SDS011;62306;52.516;13.290;2023-03-04T09:07:38;4.35;;;2.08;;
73954;SDS011;62306;52.516;13.290;2023-03-04T09:10:05;13.23;;;2.50;;
73954;SDS011;62306;52.516;13.290;2023-03-04T09:12:32;13.55;;;2.53;;
73954;SDS011;62306;52.516;13.290;2023-03-04T09:14:59;7.30;;;2.97;;
73954;SDS011;62306;52.516;13.290;2023-03-04T09:17:27;11.45;;;2.78;;
73954;SDS011;62306;52.516;13.290;2023-03-04T09:19:55;11.13;;;2.45;;
73954;SDS011;62306;52.516;13.290;2023-03-04T09:22:22;14.18;;;4.00;;
73954;SDS011;62306;52.516;13.290;2023-03-04T09:24:49;7.88;;;3.00;;
73954;SDS011;62306;52.516;13.290;2023-03-04T09:27:16;11.75;;;2.55;;
73954;SDS011;62306;52.516;13.290;2023-03-04T09:29:42;16.88;;;3.17;;
73954;SDS011;62306;52.516;13.290;2023-03-04T09:32:09;12.68;;;2.78;;
73954;SDS011;62306;52.516;13.290;2023-03-04T09:34:36;6.38;;;2.28;;
73954;SDS011;62306;52.516;13.290;2023-03-04T09:37:04;10.48;;;2.85;;
73954;SDS011;62306;52.516;13.290;2023-03-04T09:39:31;15.00;;;2.45;;
73954;SDS011;62306;52.516;13.290;2023-03-04T09:41:58;11.45;;;2.67;;
73954;SDS011;62306;52.516;13.290;2023-03-04T09:44:28;9.70;;;2.30;;
73954;SDS011;62306;52.516;13.290;2023-03-04T09:46:57;8.32;;;2.03;;
73954;SDS011;62306;52.516;13.290;2023-03-04T09:49:27;12.63;;;2.40;;
73954;SDS011;62306;52.516;13.290;2023-03-04T09:51:58;13.70;;;2.15;;
73954;SDS011;62306;52.516;13.290;2023-03-04T09:54:35;12.15;;;2.55;;
73954;SDS011;62306;52.516;13.290;2023-03-04T09:57:23;9.50;;;2.22;;
73954;SDS011;62306;52.516;13.290;2023-03-04T09:59:58;7.93;;;2.17;;
73954;SDS011;62306;52.516;13.290;2023-03-04T10:02:39;10.60;;;2.28;;
73954;SDS011;62306;52.516;13.290;2023-03-04T10:05:11;9.98;;;2.28;;
73954;SDS011;62306;52.516;13.290;2023-03-04T10:07:42;19.55;;;3.22;;
73954;SDS011;62306;52.516;13.290;2023-03-04T10:10:15;8.00;;;1.88;;
73954;SDS011;62306;52.516;13.290;2023-03-04T10:12:47;13.82;;;2.47;;
73954;SDS011;62306;52.516;13.290;2023-03-04T10:15:17;16.48;;;3.28;;
73954;SDS011;62306;52.516;13.290;2023-03-04T10:17:49;14.60;;;2.17;;
73954;SDS011;62306;52.516;13.290;2023-03-04T10:20:22;13.80;;;2.53;;
73954;SDS011;62306;52.516;13.290;2023-03-04T10:22:55;11.60;;;2.50;;
73954;SDS011;62306;52.516;13.290;2023-03-04T10:25:26;15.23;;;3.00;;
73954;SDS011;62306;52.516;13.290;2023-03-04T10:27:54;21.10;;;2.50;;
73954;SDS011;62306;52.516;13.290;2023-03-04T10:30:29;14.88;;;2.38;;
73954;SDS011;62306;52.516;13.290;2023-03-04T10:33:00;15.48;;;2.83;;
73954;SDS011;62306;52.516;13.290;2023-03-04T10:35:30;21.77;;;2.92;;
73954;SDS011;62306;52.516;13.290;2023-03-04T10:38:01;14.73;;;2.95;;
73954;SDS011;62306;52.516;13.290;2023-03-04T10:40:35;15.40;;;2.17;;
73954;SDS011;62306;52.516;13.290;2023-03-04T10:43:03;12.77;;;2.70;;
73954;SDS011;62306;52.516;13.290;2023-03-04T10:45:32;20.00;;;3.00;;
73954;SDS011;62306;52.516;13.290;2023-03-04T10:48:05;22.30;;;2.88;;
73954;SDS011;62306;52.516;13.290;2023-03-04T10:50:33;13.75;;;2.45;;
73954;SDS011;62306;52.516;13.290;2023-03-04T10:53:00;15.32;;;2.72;;
73954;SDS011;62306;52.516;13.290;2023-03-04T10:55:28;17.30;;;3.22;;
73954;SDS011;62306;52.516;13.290;2023-03-04T10:58:11;15.55;;;2.63;;
73954;SDS011;62306;52.516;13.290;2023-03-04T11:00:40;19.85;;;3.00;;
73954;SDS011;62306;52.516;13.290;2023-03-04T11:06:11;16.27;;;3.03;;
73954;SDS011;62306;52.516;13.290;2023-03-04T11:08:42;22.13;;;3.65;;
73954;SDS011;62306;52.516;13.290;2023-03-04T11:11:24;27.58;;;3.00;;
73954;SDS011;62306;52.516;13.290;2023-03-04T11:14:00;12.45;;;2.58;;
73954;SDS011;62306;52.516;13.290;2023-03-04T11:16:37;22.40;;;3.45;;
73954;SDS011;62306;52.516;13.290;2023-03-04T11:19:05;20.35;;;3.33;;
73954;SDS011;62306;52.516;13.290;2023-03-04T11:21:39;23.83;;;2.78;;
73954;SDS011;62306;52.516;13.290;2023-03-04T11:24:10;13.65;;;2.70;;
73954;SDS011;62306;52.516;13.290;2023-03-04T11:26:40;16.65;;;3.22;;
73954;SDS011;62306;52.516;13.290;2023-03-04T11:29:13;16.60;;;2.72;;
73954;SDS011;62306;52.516;13.290;2023-03-04T11:31:45;19.48;;;3.50;;
73954;SDS011;62306;52.516;13.290;2023-03-04T11:34:17;19.80;;;3.35;;
73954;SDS011;62306;52.516;13.290;2023-03-04T11:36:55;25.80;;;3.53;;
73954;SDS011;62306;52.516;13.290;2023-03-04T11:39:29;26.02;;;4.10;;
73954;SDS011;62306;52.516;13.290;2023-03-04T11:42:02;23.85;;;3.47;;
73954;SDS011;62306;52.516;13.290;2023-03-04T11:44:33;19.20;;;2.90;;
73954;SDS011;62306;52.516;13.290;2023-03-04T11:47:04;26.08;;;2.90;;
73954;SDS011;62306;52.516;13.290;2023-03-04T11:49:47;22.27;;;3.10;;
73954;SDS011;62306;52.516;13.290;2023-03-04T11:52:30;22.88;;;3.17;;
73954;SDS011;62306;52.516;13.290;2023-03-04T11:55:17;19.70;;;3.40;;
73954;SDS011;62306;52.516;13.290;2023-03-04T11:57:56;29.48;;;3.20;;
73954;SDS011;62306;52.516;13.290;2023-03-04T12:00:37;20.27;;;2.92;;
73954;SDS011;62306;52.516;13.290;2023-03-04T12:03:23;22.70;;;3.57;;
73954;SDS011;62306;52.516;13.290;2023-03-04T12:06:06;18.42;;;2.88;;
73954;SDS011;62306;52.516;13.290;2023-03-04T12:08:52;26.67;;;3.55;;
73954;SDS011;62306;52.516;13.290;2023-03-04T12:11:28;24.70;;;3.83;;
73954;SDS011;62306;52.516;13.290;2023-03-04T12:14:07;18.08;;;3.03;;
73954;SDS011;62306;52.516;13.290;2023-03-04T12:16:51;16.45;;;3.40;;
73954;SDS011;62306;52.516;13.290;2023-03-04T12:19:46;17.95;;;3.05;;
73954;SDS011;62306;52.516;13.290;2023-03-04T12:22:29;23.58;;;4.15;;
73954;SDS011;62306;52.516;13.290;2023-03-04T12:25:05;18.60;;;2.92;;
73954;SDS011;62306;52.516;13.290;2023-03-04T12:27:46;20.45;;;3.50;;
73954;SDS011;62306;52.516;13.290;2023-03-04T12:30:32;16.95;;;3.50;;
73954;SDS011;62306;52.516;13.290;2023-03-04T12:33:13;20.38;;;3.03;;
73954;SDS011;62306;52.516;13.290;2023-03-04T12:35:54;23.33;;;4.00;;
73954;SDS011;62306;52.516;13.290;2023-03-04T12:38:32;23.25;;;4.00;;
73954;SDS011;62306;52.516;13.290;2023-03-04T12:41:12;23.40;;;3.83;;
73954;SDS011;62306;52.516;13.290;2023-03-04T12:43:53;15.88;;;3.72;;
73954;SDS011;62306;52.516;13.290;2023-03-04T12:46:30;19.42;;;4.07;;
73954;SDS011;62306;52.516;13.290;2023-03-04T12:51:58;13.77;;;2.10;;
73954;SDS011;62306;52.516;13.290;2023-03-04T12:54:31;16.88;;;2.70;;
73954;SDS011;62306;52.516;13.290;2023-03-04T12:57:06;23.02;;;2.60;;
73954;SDS011;62306;52.516;13.290;2023-03-04T12:59:39;17.58;;;3.08;;
73954;SDS011;62306;52.516;13.290;2023-03-04T13:08:08;16.17;;;3.38;;
73954;SDS011;62306;52.516;13.290;2023-03-04T13:10:42;17.50;;;3.35;;
73954;SDS011;62306;52.516;13.290;2023-03-04T13:16:00;18.75;;;2.90;;
73954;SDS011;62306;52.516;13.290;2023-03-04T13:18:31;14.18;;;3.00;;
73954;SDS011;62306;52.516;13.290;2023-03-04T13:23:50;15.98;;;2.50;;
73954;SDS011;62306;52.516;13.290;2023-03-04T13:26:19;19.17;;;2.83;;
73954;SDS011;62306;52.516;13.290;2023-03-04T13:28:53;19.42;;;3.30;;
73954;SDS011;62306;52.516;13.290;2023-03-04T13:31:35;19.38;;;2.70;;
73954;SDS011;62306;52.516;13.290;2023-03-04T13:34:42;15.23;;;3.17;;
73954;SDS011;62306;52.516;13.290;2023-03-04T13:37:26;14.65;;;2.40;;
73954;SDS011;62306;52.516;13.290;2023-03-04T13:45:49;13.07;;;2.95;;
73954;SDS011;62306;52.516;13.290;2023-03-04T13:48:25;16.65;;;2.67;;
73954;SDS011;62306;52.516;13.290;2023-03-04T13:50:56;13.98;;;2.83;;
73954;SDS011;62306;52.516;13.290;2023-03-04T13:59:08;18.25;;;2.72;;
73954;SDS011;62306;52.516;13.290;2023-03-04T14:01:59;20.73;;;4.40;;
73954;SDS011;62306;52.516;13.290;2023-03-04T14:04:33;20.85;;;3.38;;
73954;SDS011;62306;52.516;13.290;2023-03-04T14:07:02;18.63;;;2.90;;
73954;SDS011;62306;52.516;13.290;2023-03-04T14:09:52;15.73;;;3.42;;
73954;SDS011;62306;52.516;13.290;2023-03-04T14:12:20;18.40;;;3.30;;
73954;SDS011;62306;52.516;13.290;2023-03-04T14:14:48;18.08;;;3.03;;
73954;SDS011;62306;52.516;13.290;2023-03-04T14:17:18;22.75;;;3.00;;
73954;SDS011;62306;52.516;13.290;2023-03-04T14:19:49;15.88;;;2.97;;
73954;SDS011;62306;52.516;13.290;2023-03-04T14:22:19;20.92;;;3.22;;
73954;SDS011;62306;52.516;13.290;2023-03-04T14:24:59;17.80;;;3.17;;
73954;SDS011;62306;52.516;13.290;2023-03-04T14:27:27;20.13;;;3.30;;
73954;SDS011;62306;52.516;13.290;2023-03-04T14:29:57;23.25;;;2.90;;
73954;SDS011;62306;52.516;13.290;2023-03-04T14:32:25;19.80;;;3.00;;
73954;SDS011;62306;52.516;13.290;2023-03-04T14:34:55;22.65;;;3.15;;
73954;SDS011;62306;52.516;13.290;2023-03-04T14:37:24;14.80;;;3.00;;
73954;SDS011;62306;52.516;13.290;2023-03-04T14:39:56;18.42;;;3.53;;
73954;SDS011;62306;52.516;13.290;2023-03-04T14:42:25;20.60;;;3.30;;
73954;SDS011;62306;52.516;13.290;2023-03-04T14:45:01;17.70;;;3.00;;
73954;SDS011;62306;52.516;13.290;2023-03-04T14:47:30;31.40;;;3.92;;
73954;SDS011;62306;52.516;13.290;2023-03-04T14:50:04;21.73;;;3.35;;
73954;SDS011;62306;52.516;13.290;2023-03-04T14:52:33;14.43;;;2.70;;
73954;SDS011;62306;52.516;13.290;2023-03-04T14:55:08;21.98;;;2.85;;
73954;SDS011;62306;52.516;13.290;2023-03-04T14:57:44;17.52;;;3.20;;
73954;SDS011;62306;52.516;13.290;2023-03-04T15:00:13;21.60;;;3.25;;
73954;SDS011;62306;52.516;13.290;2023-03-04T15:02:51;23.58;;;2.97;;
73954;SDS011;62306;52.516;13.290;2023-03-04T15:05:22;10.68;;;2.60;;